Time;durP1;ratioP1;P1;durP2;ratioP2;P2;SDS_P1;SDS_P2;PMS_P1;PMS_P2;Temp;Humidity;BMP_temperature;BMP_pressure;BME280_temperature;BME280_humidity;BME280_pressure;Samples;Min_cycle;Max_cycle;Signal;HPM_P1;HPM_P2
2022/08/26 00:00:45;;;;;;;38.67;6.20;;;20.90;1.00;;;;;;5028953;28;20269;-79
2022/08/26 00:03:15;;;;;;;12.93;5.57;;;20.90;1.00;;;;;;5031448;28;20413;-78
2022/08/26 00:06:19;;;;;;;9.33;5.57;;;20.90;1.00;;;;;;5034103;28;20416;-79
2022/08/26 00:08:56;;;;;;;10.07;5.40;;;20.80;1.00;;;;;;5018942;28;20438;-79
2022/08/26 00:11:26;;;;;;;7.73;5.77;;;20.80;1.00;;;;;;5028558;28;20420;-79
2022/08/26 00:14:15;;;;;;;15.73;6.13;;;20.80;1.00;;;;;;5016022;28;20551;-78
2022/08/26 00:16:44;;;;;;;10.80;6.43;;;20.80;1.00;;;;;;5024982;28;20424;-79
2022/08/26 00:19:26;;;;;;;11.20;5.90;;;20.80;1.00;;;;;;5031476;28;20469;-79
2022/08/26 00:21:56;;;;;;;14.10;6.07;;;20.70;1.00;;;;;;5029028;28;20419;-78
2022/08/26 00:24:26;;;;;;;10.70;5.93;;;20.70;1.00;;;;;;5030113;28;20429;-79
2022/08/26 00:27:02;;;;;;;15.10;6.07;;;20.70;1.00;;;;;;5032670;28;20398;-79
2022/08/26 00:29:30;;;;;;;9.13;5.60;;;20.60;1.00;;;;;;5020817;28;21084;-78
2022/08/26 00:32:02;;;;;;;7.77;6.20;;;20.60;1.00;;;;;;5033489;28;20801;-79
2022/08/26 00:34:44;;;;;;;11.23;5.80;;;20.60;1.00;;;;;;5024628;28;20952;-79
2022/08/26 00:37:10;;;;;;;9.77;6.00;;;20.50;1.00;;;;;;5028408;28;20450;-73
2022/08/26 00:39:35;;;;;;;7.23;5.90;;;20.50;1.00;;;;;;5026962;28;20436;-73
2022/08/26 00:42:03;;;;;;;11.43;6.30;;;20.50;1.00;;;;;;5027400;28;20219;-73
2022/08/26 00:44:28;;;;;;;12.50;5.60;;;20.50;1.00;;;;;;5015937;28;20182;-73
2022/08/26 00:47:06;;;;;;;9.83;7.03;;;20.40;1.00;;;;;;5029573;28;20423;-73
2022/08/26 00:49:39;;;;;;;13.83;7.20;;;20.40;1.00;;;;;;5032658;28;20216;-73
2022/08/26 00:52:10;;;;;;;8.70;6.40;;;20.30;1.00;;;;;;5016069;28;20429;-79
2022/08/26 00:55:10;;;;;;;10.47;5.70;;;20.30;1.00;;;;;;5019639;28;20411;-79
2022/08/26 00:57:47;;;;;;;9.20;6.17;;;20.30;1.00;;;;;;5030601;28;20432;-79
2022/08/26 01:00:44;;;;;;;9.80;6.50;;;20.20;1.00;;;;;;5034690;28;20393;-79
2022/08/26 01:03:33;;;;;;;8.57;5.57;;;20.10;1.00;;;;;;5031789;28;20407;-78
2022/08/26 01:06:00;;;;;;;8.67;5.50;;;20.20;1.00;;;;;;5026795;28;20439;-79
2022/08/26 01:08:27;;;;;;;10.43;5.90;;;20.10;1.00;;;;;;5023075;28;20474;-79
2022/08/26 01:11:03;;;;;;;10.63;5.27;;;20.10;1.00;;;;;;5031941;28;20469;-79
2022/08/26 01:13:34;;;;;;;9.50;6.17;;;20.00;1.00;;;;;;5016074;28;20449;-79
2022/08/26 01:16:04;;;;;;;13.00;6.40;;;20.00;1.00;;;;;;5030218;28;20433;-79
2022/08/26 01:19:08;;;;;;;11.00;5.80;;;19.90;1.00;;;;;;5031628;28;20738;-79
2022/08/26 01:22:14;;;;;;;12.47;5.63;;;19.80;1.00;;;;;;5023023;28;20429;-79
2022/08/26 01:24:59;;;;;;;6.40;5.70;;;19.80;1.00;;;;;;5020181;28;20489;-79
2022/08/26 01:27:30;;;;;;;8.63;6.63;;;19.70;1.00;;;;;;5027026;28;20927;-79
2022/08/26 01:29:57;;;;;;;7.93;5.93;;;19.70;1.00;;;;;;5024920;28;20480;-79
2022/08/26 01:32:24;;;;;;;12.60;6.60;;;19.70;1.00;;;;;;5013833;28;20457;-79
2022/08/26 01:34:56;;;;;;;8.03;6.33;;;19.70;1.00;;;;;;5015685;28;20800;-79
2022/08/26 01:38:02;;;;;;;8.80;6.63;;;19.70;1.00;;;;;;5025337;28;20906;-79
2022/08/26 01:40:36;;;;;;;11.37;6.23;;;19.70;1.00;;;;;;5031797;28;20438;-79
2022/08/26 01:43:24;;;;;;;11.93;6.00;;;19.60;1.00;;;;;;5014761;28;20493;-79
2022/08/26 01:45:53;;;;;;;10.77;5.93;;;19.60;1.00;;;;;;5028604;28;20439;-79
2022/08/26 01:48:24;;;;;;;9.67;6.30;;;19.60;1.00;;;;;;5020997;28;20424;-79
2022/08/26 01:50:51;;;;;;;11.20;6.17;;;19.50;1.00;;;;;;5014593;28;20423;-79
2022/08/26 01:53:19;;;;;;;10.60;6.30;;;19.50;1.00;;;;;;5028571;28;20776;-73
2022/08/26 01:55:49;;;;;;;7.50;6.00;;;19.50;1.00;;;;;;5029922;28;20446;-73
2022/08/26 01:58:27;;;;;;;9.57;6.83;;;19.50;1.00;;;;;;5018717;28;20471;-73
2022/08/26 02:00:53;;;;;;;7.30;5.47;;;19.40;1.00;;;;;;5021004;28;20394;-73
2022/08/26 02:03:27;;;;;;;11.50;6.70;;;19.40;1.00;;;;;;5016624;28;20407;-73
2022/08/26 02:05:59;;;;;;;7.87;6.30;;;19.40;1.00;;;;;;5014853;28;20977;-73
2022/08/26 02:08:50;;;;;;;8.60;6.17;;;19.40;1.00;;;;;;5029056;28;20471;-73
2022/08/26 02:11:21;;;;;;;7.13;6.10;;;19.30;1.00;;;;;;5026822;28;20445;-73
2022/08/26 02:14:10;;;;;;;9.97;6.50;;;19.30;1.00;;;;;;5022457;28;20450;-73
2022/08/26 02:16:39;;;;;;;7.77;5.70;;;19.30;1.00;;;;;;5014584;28;20876;-73
2022/08/26 02:19:12;;;;;;;9.77;6.30;;;19.30;1.00;;;;;;5021164;28;20479;-73
2022/08/26 02:21:40;;;;;;;14.67;6.63;;;19.30;1.00;;;;;;5021903;28;20446;-73
2022/08/26 02:24:27;;;;;;;9.17;6.43;;;19.30;1.00;;;;;;5028703;28;20431;-79
2022/08/26 02:27:02;;;;;;;10.60;5.90;;;19.30;1.00;;;;;;5030215;28;20430;-79
2022/08/26 02:29:34;;;;;;;13.10;6.90;;;19.20;1.00;;;;;;5014127;28;20483;-79
2022/08/26 02:32:05;;;;;;;8.57;5.93;;;19.20;1.00;;;;;;5020643;28;20940;-79
2022/08/26 02:34:38;;;;;;;12.47;6.50;;;19.30;1.00;;;;;;5030271;28;20462;-79
2022/08/26 02:37:07;;;;;;;10.20;6.77;;;19.30;1.00;;;;;;5025136;28;20422;-79
2022/08/26 02:39:44;;;;;;;14.73;6.80;;;19.30;1.00;;;;;;5019655;28;20437;-79
2022/08/26 02:42:10;;;;;;;6.27;5.67;;;19.30;1.00;;;;;;5019646;28;20419;-79
2022/08/26 02:45:02;;;;;;;11.60;6.40;;;19.30;1.00;;;;;;5028948;28;20756;-79
2022/08/26 02:47:33;;;;;;;17.37;6.27;;;19.30;1.00;;;;;;5024211;28;20259;-79
2022/08/26 02:49:59;;;;;;;9.20;6.50;;;19.40;1.00;;;;;;5023099;28;20423;-79
2022/08/26 02:52:32;;;;;;;16.00;6.90;;;19.40;1.00;;;;;;5024658;28;20512;-79
2022/08/26 02:55:03;;;;;;;11.60;6.40;;;19.40;1.00;;;;;;5036837;28;20905;-80
2022/08/26 02:57:32;;;;;;;7.50;6.33;;;19.40;1.00;;;;;;5028287;28;20924;-79
2022/08/26 03:00:04;;;;;;;9.03;6.43;;;19.40;1.00;;;;;;5017196;28;20759;-79
2022/08/26 03:02:32;;;;;;;9.60;6.00;;;19.40;1.00;;;;;;5029507;28;20423;-79
2022/08/26 03:05:03;;;;;;;11.50;6.27;;;19.50;1.00;;;;;;5021443;28;20406;-79
2022/08/26 03:07:32;;;;;;;18.03;6.93;;;19.50;1.00;;;;;;5028531;28;20434;-79
2022/08/26 03:10:03;;;;;;;12.03;7.00;;;19.50;1.00;;;;;;5023855;28;20952;-73
2022/08/26 03:12:32;;;;;;;10.87;6.80;;;19.50;1.00;;;;;;5022898;28;20431;-73
2022/08/26 03:15:04;;;;;;;13.70;6.00;;;19.50;1.00;;;;;;5022903;28;20420;-73
2022/08/26 03:17:30;;;;;;;12.03;6.20;;;19.60;1.00;;;;;;5028888;28;20484;-73
2022/08/26 03:19:56;;;;;;;9.50;6.43;;;19.60;1.00;;;;;;5032112;28;20422;-73
2022/08/26 03:22:21;;;;;;;12.10;5.97;;;19.70;1.00;;;;;;5026166;28;20180;-73
2022/08/26 03:24:50;;;;;;;14.37;6.43;;;19.70;1.00;;;;;;5031488;28;20554;-79
2022/08/26 03:27:20;;;;;;;12.97;6.67;;;19.70;1.00;;;;;;5034807;28;20650;-79
2022/08/26 03:32:32;;;;;;;9.30;6.67;;;19.80;1.00;;;;;;5023560;28;20403;-80
2022/08/26 03:35:32;;;;;;;9.93;5.63;;;19.90;1.00;;;;;;5029154;28;20407;-80
2022/08/26 03:38:03;;;;;;;11.17;5.60;;;19.90;1.00;;;;;;5021521;28;20409;-79
2022/08/26 03:40:33;;;;;;;8.97;6.23;;;19.90;1.00;;;;;;5022859;28;20435;-79
2022/08/26 03:43:04;;;;;;;13.87;5.90;;;19.90;1.00;;;;;;5020856;28;20468;-79
2022/08/26 03:45:33;;;;;;;11.40;6.57;;;19.90;1.00;;;;;;5016240;28;20906;-79
2022/08/26 03:48:03;;;;;;;16.33;6.73;;;19.90;1.00;;;;;;5027175;28;20420;-79
2022/08/26 03:50:29;;;;;;;11.87;6.83;;;19.90;1.00;;;;;;5027853;28;20430;-79
2022/08/26 03:53:03;;;;;;;7.60;6.00;;;19.90;1.00;;;;;;5023513;28;20917;-79
2022/08/26 03:55:32;;;;;;;12.97;6.50;;;19.90;1.00;;;;;;5029861;28;20905;-79
2022/08/26 03:58:14;;;;;;;16.93;6.40;;;19.80;1.00;;;;;;5034939;28;20918;-80
2022/08/26 04:00:50;;;;;;;20.43;7.10;;;19.80;1.00;;;;;;5022620;28;20425;-79
2022/08/26 04:03:56;;;;;;;10.40;6.73;;;19.80;1.00;;;;;;5021373;28;20435;-79
2022/08/26 04:06:43;;;;;;;13.73;6.90;;;19.80;1.00;;;;;;5032076;28;20964;-79
2022/08/26 04:09:20;;;;;;;17.40;6.67;;;19.80;1.00;;;;;;5030172;28;20446;-73
2022/08/26 04:11:47;;;;;;;17.13;7.00;;;19.80;1.00;;;;;;5018380;28;20452;-73
2022/08/26 04:14:16;;;;;;;23.30;7.27;;;19.80;1.00;;;;;;5021728;28;20458;-73
2022/08/26 04:16:42;;;;;;;10.80;6.97;;;19.90;1.00;;;;;;5030149;28;20501;-73
2022/08/26 04:19:10;;;;;;;23.30;7.80;;;19.90;1.00;;;;;;5033709;28;20498;-73
2022/08/26 04:21:40;;;;;;;22.53;6.87;;;20.00;1.00;;;;;;5025751;28;20774;-73
2022/08/26 04:24:15;;;;;;;29.17;7.37;;;20.10;1.00;;;;;;5027123;28;20784;-79
2022/08/26 04:27:02;;;;;;;17.50;7.37;;;20.10;1.00;;;;;;5028230;28;20549;-79
2022/08/26 04:29:28;;;;;;;16.63;6.30;;;20.20;1.00;;;;;;5026978;28;20486;-80
2022/08/26 04:31:55;;;;;;;12.23;6.40;;;20.30;1.00;;;;;;5032738;28;20398;-79
2022/08/26 04:34:32;;;;;;;19.83;7.20;;;20.40;1.00;;;;;;5029455;28;20460;-81
2022/08/26 04:37:02;;;;;;;13.50;7.07;;;20.50;1.00;;;;;;5022777;28;20431;-81
2022/08/26 04:40:02;;;;;;;15.30;7.40;;;20.50;1.00;;;;;;5023132;28;20478;-81
2022/08/26 04:43:08;;;;;;;25.70;7.77;;;20.60;1.00;;;;;;5027757;28;20408;-80
2022/08/26 04:46:03;;;;;;;32.17;8.03;;;20.70;1.00;;;;;;5027639;28;20416;-80
2022/08/26 04:48:33;;;;;;;24.27;7.30;;;20.70;1.00;;;;;;5022918;28;20442;-80
2022/08/26 04:51:32;;;;;;;24.07;7.80;;;20.80;1.00;;;;;;5026086;28;20432;-81
2022/08/26 04:54:05;;;;;;;16.43;7.20;;;20.90;1.00;;;;;;5021046;28;20458;-81
2022/08/26 04:56:35;;;;;;;17.90;6.83;;;20.90;1.00;;;;;;5029547;28;20453;-81
2022/08/26 04:59:05;;;;;;;18.37;7.10;;;21.00;1.00;;;;;;5034204;28;20416;-81
2022/08/26 05:01:31;;;;;;;13.73;6.50;;;21.00;1.00;;;;;;5015907;28;20475;-81
2022/08/26 05:04:08;;;;;;;25.97;7.47;;;21.10;1.00;;;;;;5015282;28;20429;-80
2022/08/26 05:06:38;;;;;;;12.37;6.53;;;21.20;1.00;;;;;;5025377;28;20199;-81
2022/08/26 05:09:21;;;;;;;15.67;7.03;;;21.10;1.00;;;;;;5031283;28;20443;-80
2022/08/26 05:11:50;;;;;;;19.53;6.97;;;21.10;1.00;;;;;;5024902;28;20923;-75
2022/08/26 05:14:21;;;;;;;13.53;6.40;;;21.20;1.00;;;;;;5032477;28;20464;-74
2022/08/26 05:16:47;;;;;;;17.80;7.20;;;21.20;1.00;;;;;;5017833;28;20433;-74
2022/08/26 05:19:15;;;;;;;16.80;7.57;;;21.20;1.00;;;;;;5027896;28;20512;-75
2022/08/26 05:21:50;;;;;;;19.73;6.93;;;21.30;1.00;;;;;;5027114;28;20179;-74
2022/08/26 05:24:16;;;;;;;13.50;7.03;;;21.20;1.00;;;;;;5031229;28;20434;-74
2022/08/26 05:26:50;;;;;;;12.10;6.60;;;21.20;1.00;;;;;;5033727;28;20413;-81
2022/08/26 05:29:16;;;;;;;16.20;7.33;;;21.20;1.00;;;;;;5028025;28;20407;-81
2022/08/26 05:31:41;;;;;;;12.13;6.70;;;21.20;1.00;;;;;;5025711;28;20447;-81
2022/08/26 05:35:02;;;;;;;12.93;7.33;;;21.20;1.00;;;;;;5022733;28;20293;-81
2022/08/26 05:37:50;;;;;;;14.23;7.00;;;21.20;1.00;;;;;;5027120;28;20191;-81
2022/08/26 05:40:35;;;;;;;14.40;7.40;;;21.20;1.00;;;;;;5015860;28;20417;-75
2022/08/26 05:43:02;;;;;;;12.13;7.03;;;21.20;1.00;;;;;;5025535;28;20915;-74
2022/08/26 05:45:27;;;;;;;10.07;6.70;;;21.20;1.00;;;;;;5026467;28;20417;-74
2022/08/26 05:48:04;;;;;;;12.10;6.60;;;21.20;1.00;;;;;;5028390;28;20844;-74
2022/08/26 05:50:29;;;;;;;9.20;6.40;;;21.10;1.00;;;;;;5022810;28;20515;-74
2022/08/26 05:52:57;;;;;;;11.07;6.67;;;21.10;1.00;;;;;;5026903;28;20460;-74
2022/08/26 05:55:33;;;;;;;10.40;5.93;;;21.10;1.00;;;;;;5026672;28;20178;-74
2022/08/26 05:58:02;;;;;;;11.30;7.10;;;21.10;1.00;;;;;;5031872;28;20767;-76
2022/08/26 06:00:28;;;;;;;11.40;7.37;;;21.10;1.00;;;;;;5031716;28;20401;-76
2022/08/26 06:02:56;;;;;;;9.70;6.73;;;21.10;1.00;;;;;;5032040;28;20796;-76
2022/08/26 06:05:22;;;;;;;14.80;6.70;;;21.20;1.00;;;;;;5022302;28;20234;-71
2022/08/26 06:10:57;;;;;;;23.13;6.70;;;21.20;1.00;;;;;;5031872;28;20955;-81
2022/08/26 06:13:50;;;;;;;26.13;7.17;;;21.20;1.00;;;;;;5030928;28;20476;-81
2022/08/26 06:16:50;;;;;;;10.73;7.03;;;21.20;1.00;;;;;;5032329;28;20487;-82
2022/08/26 06:25:51;;;;;;;30.90;7.57;;;21.30;1.00;;;;;;5030686;28;20427;-81
2022/08/26 06:28:20;;;;;;;14.43;6.77;;;21.30;1.00;;;;;;5019817;28;20436;-83
2022/08/26 06:30:56;;;;;;;13.07;6.60;;;21.30;1.00;;;;;;5020446;28;20473;-83
2022/08/26 06:37:01;;;;;;;18.30;7.00;;;21.40;1.00;;;;;;5017117;28;20397;-82
2022/08/26 06:39:50;;;;;;;19.33;7.70;;;21.50;1.00;;;;;;5035084;28;20411;-83
2022/08/26 06:42:21;;;;;;;21.30;7.13;;;21.60;1.00;;;;;;5036271;28;20413;-83
2022/08/26 06:45:20;;;;;;;18.53;6.97;;;21.60;1.00;;;;;;5023501;28;20775;-83
2022/08/26 06:47:51;;;;;;;15.83;6.40;;;21.70;1.00;;;;;;5022652;28;20944;-83
2022/08/26 06:50:20;;;;;;;9.67;6.20;;;21.70;1.00;;;;;;5018111;28;20473;-83
2022/08/26 06:52:46;;;;;;;11.87;6.50;;;21.80;1.00;;;;;;5025848;28;20851;-83
2022/08/26 06:55:14;;;;;;;19.43;7.13;;;21.90;1.00;;;;;;5028125;28;20441;-82
2022/08/26 06:57:50;;;;;;;11.53;7.33;;;21.90;1.00;;;;;;5031745;28;20181;-80
2022/08/26 07:00:17;;;;;;;22.93;7.77;;;22.00;1.00;;;;;;5024727;28;20485;-80
2022/08/26 07:02:50;;;;;;;15.87;7.83;;;22.00;1.00;;;;;;5024278;28;20423;-80
2022/08/26 07:05:20;;;;;;;15.40;6.53;;;22.10;1.00;;;;;;5017867;28;20885;-80
2022/08/26 07:07:51;;;;;;;18.80;7.33;;;22.20;1.00;;;;;;5024968;28;20426;-80
2022/08/26 07:11:08;;;;;;;18.90;7.80;;;22.30;1.00;;;;;;5032139;28;20514;-80
2022/08/26 07:13:46;;;;;;;13.27;7.13;;;22.40;1.00;;;;;;5031227;28;20971;-80
2022/08/26 07:16:20;;;;;;;11.87;7.17;;;22.60;1.00;;;;;;5028294;28;20525;-80
2022/08/26 07:18:47;;;;;;;17.87;8.13;;;22.80;1.00;;;;;;5034945;28;20924;-80
2022/08/26 07:21:21;;;;;;;13.43;7.20;;;23.00;1.00;;;;;;5025112;28;20412;-80
2022/08/26 07:23:52;;;;;;;21.23;8.33;;;23.20;1.00;;;;;;5030096;28;20465;-80
2022/08/26 07:26:24;;;;;;;14.50;7.30;;;23.40;1.00;;;;;;5031526;28;20424;-82
2022/08/26 07:28:53;;;;;;;18.40;7.30;;;23.60;1.00;;;;;;5025971;28;20404;-82
2022/08/26 07:31:21;;;;;;;19.77;6.73;;;23.90;1.00;;;;;;5023417;28;20859;-82
2022/08/26 07:34:09;;;;;;;18.80;7.80;;;24.20;1.00;;;;;;5024239;28;20533;-82
2022/08/26 07:36:56;;;;;;;13.90;6.80;;;24.50;1.00;;;;;;5031288;28;20433;-82
2022/08/26 07:39:23;;;;;;;20.03;7.00;;;24.80;1.00;;;;;;5022861;28;20514;-77
2022/08/26 07:41:51;;;;;;;22.43;7.00;;;25.10;1.00;;;;;;5032708;28;20426;-78
2022/08/26 07:44:17;;;;;;;15.13;6.87;;;25.40;1.00;;;;;;5034177;28;20459;-75
2022/08/26 07:46:50;;;;;;;17.43;7.57;;;25.70;1.00;;;;;;5032859;28;20435;-75
2022/08/26 07:49:22;;;;;;;15.93;6.50;;;26.10;1.00;;;;;;5023974;28;20453;-75
2022/08/26 07:51:49;;;;;;;10.90;6.30;;;26.50;1.00;;;;;;5024760;28;20467;-75
2022/08/26 07:54:15;;;;;;;17.77;6.90;;;26.80;1.00;;;;;;5025011;28;20456;-76
2022/08/26 07:56:47;;;;;;;15.10;6.53;;;27.10;1.00;;;;;;5023241;28;20424;-77
2022/08/26 07:59:20;;;;;;;14.30;6.13;;;27.50;1.00;;;;;;5025891;28;20469;-77
2022/08/26 08:01:46;;;;;;;10.53;6.77;;;27.80;1.00;;;;;;5014399;28;20475;-77
2022/08/26 08:04:16;;;;;;;15.60;6.43;;;28.00;1.00;;;;;;5019899;28;20420;-77
2022/08/26 08:06:45;;;;;;;16.77;6.83;;;28.20;1.00;;;;;;5034895;28;20714;-77
2022/08/26 08:09:13;;;;;;;8.43;6.93;;;28.40;1.00;;;;;;5034579;28;20433;-77
2022/08/26 08:11:51;;;;;;;8.90;6.90;;;28.60;1.00;;;;;;5033721;28;20429;-76
2022/08/26 08:14:17;;;;;;;18.27;7.10;;;28.90;1.00;;;;;;5023184;28;20460;-73
2022/08/26 08:16:45;;;;;;;17.50;6.93;;;29.00;1.00;;;;;;5024512;28;20430;-72
2022/08/26 08:19:14;;;;;;;16.50;6.53;;;29.10;1.00;;;;;;5025115;28;20477;-73
2022/08/26 08:21:41;;;;;;;12.97;6.60;;;29.30;1.00;;;;;;5032147;28;20457;-73
2022/08/26 08:24:07;;;;;;;20.77;7.07;;;29.50;1.00;;;;;;5014124;28;20422;-73
2022/08/26 08:26:34;;;;;;;16.80;5.87;;;29.70;1.00;;;;;;5029342;28;20467;-73
2022/08/26 08:28:59;;;;;;;9.73;6.33;;;29.90;1.00;;;;;;5024341;28;20171;-73
2022/08/26 08:31:28;;;;;;;11.43;6.37;;;30.10;1.00;;;;;;5021710;28;21054;-73
2022/08/26 08:33:54;;;;;;;12.40;6.10;;;30.30;1.00;;;;;;5027123;28;20294;-73
2022/08/26 08:36:20;;;;;;;8.03;5.80;;;30.40;1.00;;;;;;5024896;28;21115;-73
2022/08/26 08:38:46;;;;;;;13.53;6.80;;;30.60;1.00;;;;;;5022919;28;20172;-73
2022/08/26 08:41:36;;;;;;;15.97;6.20;;;30.70;1.00;;;;;;5023324;28;20933;-73
2022/08/26 08:44:03;;;;;;;9.60;6.87;;;30.90;1.00;;;;;;5026897;28;20188;-73
2022/08/26 08:46:30;;;;;;;7.30;6.13;;;31.10;1.00;;;;;;5026746;28;20553;-73
2022/08/26 08:48:58;;;;;;;10.10;6.37;;;31.20;1.00;;;;;;5026781;28;20474;-72
2022/08/26 08:52:01;;;;;;;14.10;6.93;;;31.30;1.00;;;;;;5019643;28;20407;-73
2022/08/26 08:54:27;;;;;;;27.40;7.17;;;31.30;1.00;;;;;;5033088;28;20456;-73
2022/08/26 08:57:20;;;;;;;7.90;5.90;;;31.30;1.00;;;;;;5020233;28;20419;-79
2022/08/26 08:59:57;;;;;;;9.40;6.50;;;31.30;1.00;;;;;;5026911;28;20424;-79
2022/08/26 09:02:46;;;;;;;9.80;5.93;;;31.30;1.00;;;;;;5024812;28;20903;-79
2022/08/26 09:05:27;;;;;;;11.20;5.80;;;31.30;1.00;;;;;;5013503;28;20418;-80
2022/08/26 09:08:00;;;;;;;9.33;6.10;;;31.30;1.00;;;;;;5028549;28;20755;-79
2022/08/26 09:10:29;;;;;;;8.73;6.30;;;31.10;1.00;;;;;;5020475;28;20446;-79
2022/08/26 09:12:55;;;;;;;14.30;7.33;;;31.30;1.00;;;;;;5031839;28;20447;-80
2022/08/26 09:15:39;;;;;;;13.27;7.10;;;31.30;1.00;;;;;;5033149;28;20412;-79
2022/08/26 09:18:39;;;;;;;15.97;6.37;;;31.40;1.00;;;;;;5032189;28;20443;-79
2022/08/26 09:21:07;;;;;;;9.40;6.47;;;31.50;1.00;;;;;;5030949;28;20442;-79
2022/08/26 09:23:35;;;;;;;8.80;5.90;;;31.70;1.00;;;;;;5020551;28;20424;-79
2022/08/26 09:26:13;;;;;;;11.50;7.03;;;31.80;1.00;;;;;;5032240;28;20497;-79
2022/08/26 09:28:43;;;;;;;10.93;6.23;;;31.90;1.00;;;;;;5031839;28;20509;-73
2022/08/26 09:31:28;;;;;;;11.60;6.70;;;32.10;1.00;;;;;;5023336;28;20445;-73
2022/08/26 09:34:23;;;;;;;11.40;6.10;;;32.20;1.00;;;;;;5029731;28;20465;-73
2022/08/26 09:36:50;;;;;;;12.80;6.30;;;32.30;1.00;;;;;;5031333;28;20403;-73
2022/08/26 09:39:35;;;;;;;15.00;6.50;;;32.40;1.00;;;;;;5031454;28;20415;-73
2022/08/26 09:42:24;;;;;;;11.10;5.97;;;32.60;1.00;;;;;;5031637;28;20932;-78
2022/08/26 09:44:53;;;;;;;11.33;6.73;;;32.80;1.00;;;;;;5018735;28;20451;-79
2022/08/26 09:47:26;;;;;;;10.53;6.53;;;33.00;1.00;;;;;;5032311;28;20414;-79
2022/08/26 09:50:00;;;;;;;12.40;5.83;;;33.00;1.00;;;;;;5031171;28;20411;-79
2022/08/26 09:52:26;;;;;;;14.63;6.17;;;33.20;1.00;;;;;;5030453;28;20410;-79
2022/08/26 09:55:01;;;;;;;9.67;6.63;;;33.20;1.00;;;;;;5028444;28;20424;-79
2022/08/26 09:57:30;;;;;;;11.50;6.07;;;33.20;1.00;;;;;;5023930;28;20647;-73
2022/08/26 09:59:55;;;;;;;10.10;6.03;;;33.30;1.00;;;;;;5032151;28;20481;-73
2022/08/26 10:02:30;;;;;;;8.97;6.33;;;33.20;1.00;;;;;;5032234;28;20773;-73
2022/08/26 10:04:57;;;;;;;25.53;7.23;;;33.20;1.00;;;;;;5031879;28;20415;-73
2022/08/26 10:07:39;;;;;;;9.50;6.07;;;33.30;1.00;;;;;;5032175;28;20411;-73
2022/08/26 10:10:25;;;;;;;12.93;6.30;;;33.50;1.00;;;;;;5031778;28;20429;-73
2022/08/26 10:13:14;;;;;;;9.03;6.70;;;33.30;1.00;;;;;;5030864;28;20459;-73
2022/08/26 10:16:09;;;;;;;10.17;6.40;;;33.20;1.00;;;;;;5031115;28;20903;-73
2022/08/26 10:19:10;;;;;;;10.30;6.77;;;33.20;1.00;;;;;;5023268;28;20415;-73
2022/08/26 10:22:14;;;;;;;9.27;6.17;;;33.00;1.00;;;;;;5021201;28;20909;-73
2022/08/26 10:24:46;;;;;;;9.00;6.47;;;33.20;1.00;;;;;;5029429;28;20419;-73
2022/08/26 10:27:14;;;;;;;8.50;6.80;;;33.60;1.00;;;;;;5029179;28;20422;-73
2022/08/26 10:29:45;;;;;;;8.67;6.47;;;34.20;1.00;;;;;;5028556;28;20493;-79
2022/08/26 10:32:26;;;;;;;10.73;6.70;;;34.70;1.00;;;;;;5025713;28;20430;-79
2022/08/26 10:34:52;;;;;;;11.57;6.23;;;34.60;1.00;;;;;;5029550;28;20458;-79
2022/08/26 10:37:20;;;;;;;10.27;6.00;;;34.80;1.00;;;;;;5029563;28;20450;-79
2022/08/26 10:39:52;;;;;;;16.40;6.10;;;34.90;1.00;;;;;;5029918;28;20176;-79
2022/08/26 10:42:40;;;;;;;9.70;6.33;;;35.40;1.00;;;;;;5029758;28;20480;-80
2022/08/26 10:45:18;;;;;;;6.93;5.70;;;35.70;1.00;;;;;;5028326;28;20418;-79
2022/08/26 10:47:52;;;;;;;8.53;5.70;;;35.90;1.00;;;;;;5019981;28;20454;-79
2022/08/26 10:50:21;;;;;;;8.70;6.17;;;35.90;1.00;;;;;;5029571;28;20419;-79
2022/08/26 10:52:59;;;;;;;9.83;5.60;;;35.90;1.00;;;;;;5029776;28;20930;-79
2022/08/26 10:55:48;;;;;;;9.63;5.67;;;35.90;1.00;;;;;;5013164;28;20430;-79
2022/08/26 10:58:47;;;;;;;13.23;6.60;;;36.10;1.00;;;;;;5026812;28;20435;-79
2022/08/26 11:01:53;;;;;;;9.07;6.23;;;36.40;1.00;;;;;;5010639;28;20479;-79
2022/08/26 11:05:03;;;;;;;11.17;6.47;;;36.20;1.00;;;;;;5018037;28;20531;-79
2022/08/26 11:07:31;;;;;;;8.23;6.47;;;36.00;1.00;;;;;;4967192;28;20481;-79
2022/08/26 11:09:59;;;;;;;12.17;6.80;;;35.10;1.00;;;;;;4967498;28;20517;-79
2022/08/26 11:12:33;;;;;;;14.33;6.80;;;34.30;1.00;;;;;;4965513;28;20430;-79
2022/08/26 11:15:00;;;;;;;13.33;7.77;;;34.30;1.00;;;;;;4967088;28;20525;-79
2022/08/26 11:17:44;;;;;;;17.50;7.20;;;33.90;1.00;;;;;;4966352;28;20934;-79
2022/08/26 11:20:21;;;;;;;14.03;8.50;;;33.40;1.00;;;;;;4969118;28;20426;-79
2022/08/26 11:22:47;;;;;;;16.27;8.70;;;32.90;1.00;;;;;;4970124;28;20422;-79
2022/08/26 11:25:15;;;;;;;12.23;8.60;;;32.50;1.00;;;;;;4967534;28;20474;-79
2022/08/26 11:27:41;;;;;;;11.20;8.00;;;32.20;1.00;;;;;;4951472;28;20419;-78
2022/08/26 11:30:33;;;;;;;17.53;8.47;;;32.10;1.00;;;;;;4967415;28;20458;-73
2022/08/26 11:32:58;;;;;;;17.23;8.73;;;31.90;1.00;;;;;;4935392;29;20658;-73
2022/08/26 11:35:36;;;;;;;13.30;9.30;;;31.80;1.00;;;;;;4935050;29;20451;-73
2022/08/26 11:38:13;;;;;;;11.70;8.53;;;31.80;1.00;;;;;;4952907;28;20271;-73
2022/08/26 11:40:40;;;;;;;13.27;8.83;;;31.80;1.00;;;;;;4993099;28;20950;-73
2022/08/26 11:43:17;;;;;;;14.83;9.53;;;31.80;1.00;;;;;;4991481;28;20568;-73
2022/08/26 11:45:58;;;;;;;17.17;9.67;;;31.60;1.00;;;;;;4994287;28;20540;-74
2022/08/26 11:48:29;;;;;;;19.90;10.10;;;31.20;1.00;;;;;;4989649;28;20935;-74
2022/08/26 11:51:02;;;;;;;17.83;10.53;;;31.20;1.00;;;;;;4971814;28;20523;-74
2022/08/26 11:53:31;;;;;;;23.23;10.50;;;31.20;1.00;;;;;;4993287;28;20464;-74
2022/08/26 11:55:59;;;;;;;18.00;10.87;;;31.10;1.00;;;;;;4993168;28;20999;-74
2022/08/26 11:58:27;;;;;;;14.10;10.33;;;31.10;1.00;;;;;;4992746;28;20445;-74
2022/08/26 12:01:04;;;;;;;17.80;10.50;;;31.20;1.00;;;;;;4989408;28;20421;-74
2022/08/26 12:03:48;;;;;;;26.57;11.03;;;31.40;1.00;;;;;;4990615;28;20475;-74
2022/08/26 12:06:22;;;;;;;20.60;11.50;;;31.40;1.00;;;;;;4991974;28;20433;-74
2022/08/26 12:08:48;;;;;;;17.60;10.83;;;31.30;1.00;;;;;;4986947;28;20456;-73
2022/08/26 12:11:23;;;;;;;24.27;10.70;;;31.40;1.00;;;;;;5023258;28;20980;-74
2022/08/26 12:14:04;;;;;;;17.87;10.20;;;31.40;1.00;;;;;;5027487;28;20450;-74
2022/08/26 12:16:36;;;;;;;15.23;10.63;;;31.50;1.00;;;;;;5034096;28;20458;-74
2022/08/26 12:19:25;;;;;;;19.10;10.60;;;31.40;1.00;;;;;;5017533;28;20414;-74
2022/08/26 12:22:12;;;;;;;15.13;10.00;;;31.60;1.00;;;;;;5026512;28;20411;-74
2022/08/26 12:24:47;;;;;;;13.17;10.13;;;31.80;1.00;;;;;;5021771;28;20434;-74
2022/08/26 12:27:22;;;;;;;17.47;11.30;;;32.10;1.00;;;;;;5018953;28;20431;-73
2022/08/26 12:30:11;;;;;;;11.90;10.07;;;32.30;1.00;;;;;;5014928;28;20544;-76
2022/08/26 12:32:38;;;;;;;20.13;10.17;;;32.30;1.00;;;;;;5014911;28;20420;-74
2022/08/26 12:35:11;;;;;;;19.17;9.40;;;32.40;1.00;;;;;;5015318;28;20792;-74
2022/08/26 12:37:41;;;;;;;17.70;10.10;;;32.60;1.00;;;;;;5022566;28;20902;-74
2022/08/26 12:40:29;;;;;;;15.10;10.10;;;32.50;1.00;;;;;;5019722;28;20412;-74
2022/08/26 12:42:57;;;;;;;12.10;10.30;;;32.70;1.00;;;;;;5025591;28;20425;-74
2022/08/26 12:45:32;;;;;;;18.03;10.60;;;32.80;1.00;;;;;;5018485;28;20427;-74
2022/08/26 12:48:06;;;;;;;18.80;11.30;;;32.90;1.00;;;;;;5023048;28;20489;-74
2022/08/26 12:50:38;;;;;;;14.30;10.30;;;33.20;1.00;;;;;;5026503;28;20411;-74
2022/08/26 12:53:08;;;;;;;15.40;10.70;;;33.40;1.00;;;;;;5020864;28;20997;-74
2022/08/26 12:55:42;;;;;;;15.90;9.33;;;33.40;1.00;;;;;;5033682;28;20481;-74
2022/08/26 12:58:21;;;;;;;11.70;9.17;;;33.20;1.00;;;;;;5025195;28;20890;-74
2022/08/26 13:01:20;;;;;;;22.90;8.70;;;33.30;1.00;;;;;;5014716;28;20939;-79
2022/08/26 13:03:47;;;;;;;15.43;9.40;;;33.40;1.00;;;;;;5024101;28;20469;-79
2022/08/26 13:06:33;;;;;;;16.90;8.87;;;33.20;1.00;;;;;;5022016;28;20467;-79
2022/08/26 13:09:17;;;;;;;12.63;8.70;;;33.60;1.00;;;;;;5029601;28;20449;-79
2022/08/26 13:11:53;;;;;;;13.50;8.67;;;33.80;1.00;;;;;;5022634;28;20407;-79
2022/08/26 13:14:23;;;;;;;13.57;8.60;;;34.00;1.00;;;;;;5020750;28;20454;-79
2022/08/26 13:16:52;;;;;;;9.23;7.90;;;34.20;1.00;;;;;;5031446;28;20435;-79
2022/08/26 13:19:28;;;;;;;14.37;8.10;;;34.40;1.00;;;;;;5026938;28;20510;-79
2022/08/26 13:22:04;;;;;;;12.70;8.50;;;34.50;1.00;;;;;;5025148;28;20513;-79
2022/08/26 13:24:42;;;;;;;13.60;7.53;;;34.70;1.00;;;;;;5010603;28;20824;-77
2022/08/26 13:27:10;;;;;;;12.50;7.03;;;35.00;1.00;;;;;;5027861;28;20421;-78
2022/08/26 13:29:36;;;;;;;11.07;6.93;;;35.30;1.00;;;;;;5032504;28;20457;-78
2022/08/26 13:32:04;;;;;;;18.33;6.80;;;35.40;1.00;;;;;;5026841;28;20427;-74
2022/08/26 13:34:30;;;;;;;12.23;7.30;;;35.40;1.00;;;;;;5020587;28;20236;-74
2022/08/26 13:36:57;;;;;;;12.37;8.53;;;35.60;1.00;;;;;;5013883;28;20776;-74
2022/08/26 13:39:24;;;;;;;11.73;7.70;;;36.00;1.00;;;;;;5021481;28;20411;-74
2022/08/26 13:41:52;;;;;;;10.70;6.93;;;36.20;1.00;;;;;;5021804;28;20435;-85
2022/08/26 13:44:17;;;;;;;8.00;6.90;;;36.50;1.00;;;;;;5022625;28;20430;-74